logo dgac
Miércoles 24 de Enero del 2018
Buscar por aerodromo o helipuerto
Ingrese nombre de aeródromo, localidad o designador OACI:
METAR del 24-01-2018 a las 09:00 UTC
METAR SCIE 240900Z 20005KT CAVOK 12/10 Q1010
Viento: dirección 200 grados, velocidad 5 nudos
Visibilidad: 10 km o más,
    sin nubes bajo los 5.000 pies o bajo del MSA (Mínimo de Seguridad del Aeródromo),
    sin cumulonimbus, y sin fenómenos de tiempo significativo en el aeródromo o alrededores
Temperatura: 12 °C
Rocío: 10 °C
Humedad_relativa: 88%
Presión: 1010 hPa
METAR del 24-01-2018 a las 08:00 UTC
METAR SCIE 240800Z 21005KT CAVOK 12/10 Q1010
Viento: dirección 210 grados, velocidad 5 nudos
Visibilidad: 10 km o más,
    sin nubes bajo los 5.000 pies o bajo del MSA (Mínimo de Seguridad del Aeródromo),
    sin cumulonimbus, y sin fenómenos de tiempo significativo en el aeródromo o alrededores
Temperatura: 12 °C
Rocío: 10 °C
Humedad_relativa: 88%
Presión: 1010 hPa
METAR del 24-01-2018 a las 07:00 UTC
METAR SCIE 240700Z 20004KT CAVOK 12/10 Q1010
Viento: dirección 200 grados, velocidad 4 nudos
Visibilidad: 10 km o más,
    sin nubes bajo los 5.000 pies o bajo del MSA (Mínimo de Seguridad del Aeródromo),
    sin cumulonimbus, y sin fenómenos de tiempo significativo en el aeródromo o alrededores
Temperatura: 12 °C
Rocío: 10 °C
Humedad_relativa: 88%
Presión: 1010 hPa
METAR del 24-01-2018 a las 06:00 UTC
METAR SCIE 240600Z 20004KT CAVOK 13/10 Q1011
Viento: dirección 200 grados, velocidad 4 nudos
Visibilidad: 10 km o más,
    sin nubes bajo los 5.000 pies o bajo del MSA (Mínimo de Seguridad del Aeródromo),
    sin cumulonimbus, y sin fenómenos de tiempo significativo en el aeródromo o alrededores
Temperatura: 13 °C
Rocío: 10 °C
Humedad_relativa: 82%
Presión: 1011 hPa
METAR del 24-01-2018 a las 05:00 UTC
METAR SCIE 240500Z 21006KT CAVOK 13/10 Q1012
Viento: dirección 210 grados, velocidad 6 nudos
Visibilidad: 10 km o más,
    sin nubes bajo los 5.000 pies o bajo del MSA (Mínimo de Seguridad del Aeródromo),
    sin cumulonimbus, y sin fenómenos de tiempo significativo en el aeródromo o alrededores
Temperatura: 13 °C
Rocío: 10 °C
Humedad_relativa: 82%
Presión: 1012 hPa
METAR del 24-01-2018 a las 04:00 UTC
METAR SCIE 240400Z 21004KT CAVOK 13/09 Q1012
Viento: dirección 210 grados, velocidad 4 nudos
Visibilidad: 10 km o más,
    sin nubes bajo los 5.000 pies o bajo del MSA (Mínimo de Seguridad del Aeródromo),
    sin cumulonimbus, y sin fenómenos de tiempo significativo en el aeródromo o alrededores
Temperatura: 13 °C
Rocío: 9 °C
Humedad_relativa: 77%
Presión: 1012 hPa
METAR del 24-01-2018 a las 03:00 UTC
METAR SCIE 240300Z 22004KT CAVOK 15/09 Q1012
Viento: dirección 220 grados, velocidad 4 nudos
Visibilidad: 10 km o más,
    sin nubes bajo los 5.000 pies o bajo del MSA (Mínimo de Seguridad del Aeródromo),
    sin cumulonimbus, y sin fenómenos de tiempo significativo en el aeródromo o alrededores
Temperatura: 15 °C
Rocío: 9 °C
Humedad_relativa: 67%
Presión: 1012 hPa
METAR del 24-01-2018 a las 02:00 UTC
METAR SCIE 240200Z 23006KT CAVOK 16/09 Q1013
Viento: dirección 230 grados, velocidad 6 nudos
Visibilidad: 10 km o más,
    sin nubes bajo los 5.000 pies o bajo del MSA (Mínimo de Seguridad del Aeródromo),
    sin cumulonimbus, y sin fenómenos de tiempo significativo en el aeródromo o alrededores
Temperatura: 16 °C
Rocío: 9 °C
Humedad_relativa: 63%
Presión: 1013 hPa
METAR del 24-01-2018 a las 01:00 UTC
METAR SCIE 240100Z 23009KT CAVOK 17/09 Q1012
Viento: dirección 230 grados, velocidad 9 nudos
Visibilidad: 10 km o más,
    sin nubes bajo los 5.000 pies o bajo del MSA (Mínimo de Seguridad del Aeródromo),
    sin cumulonimbus, y sin fenómenos de tiempo significativo en el aeródromo o alrededores
Temperatura: 17 °C
Rocío: 9 °C
Humedad_relativa: 59%
Presión: 1012 hPa
METAR del 24-01-2018 a las 00:00 UTC
METAR SCIE 240000Z 24010KT CAVOK 19/10 Q1012
Viento: dirección 240 grados, velocidad 10 nudos
Visibilidad: 10 km o más,
    sin nubes bajo los 5.000 pies o bajo del MSA (Mínimo de Seguridad del Aeródromo),
    sin cumulonimbus, y sin fenómenos de tiempo significativo en el aeródromo o alrededores
Temperatura: 19 °C
Rocío: 10 °C
Humedad_relativa: 56%
Presión: 1012 hPa